sensor_id;sensor_type;location;lat;lon;timestamp;pressure;altitude;pressure_sealevel;temperature;humidity
11223;BME280;5668;52.012;8.724;2022-11-18T00:00:16;98330.59;;;10.59;96.86
11223;BME280;5668;52.012;8.724;2022-11-18T00:02:44;98332.53;;;10.57;96.54
11223;BME280;5668;52.012;8.724;2022-11-18T00:05:13;98331.56;;;10.58;96.73
11223;BME280;5668;52.012;8.724;2022-11-18T00:07:41;98332.53;;;10.57;95.97
11223;BME280;5668;52.012;8.724;2022-11-18T00:10:09;98333.81;;;10.53;95.57
11223;BME280;5668;52.012;8.724;2022-11-18T00:12:36;98335.91;;;10.49;95.70
11223;BME280;5668;52.012;8.724;2022-11-18T00:15:21;98344.34;;;10.43;95.65
11223;BME280;5668;52.012;8.724;2022-11-18T00:17:49;98347.75;;;10.43;96.26
11223;BME280;5668;52.012;8.724;2022-11-18T00:20:18;98344.19;;;10.44;96.17
11223;BME280;5668;52.012;8.724;2022-11-18T00:22:46;98352.13;;;10.43;95.67
11223;BME280;5668;52.012;8.724;2022-11-18T00:25:13;98345.78;;;10.37;95.89
11223;BME280;5668;52.012;8.724;2022-11-18T00:27:41;98348.38;;;10.37;96.25
11223;BME280;5668;52.012;8.724;2022-11-18T00:30:10;98342.66;;;10.34;96.12
11223;BME280;5668;52.012;8.724;2022-11-18T00:32:38;98347.03;;;10.33;96.25
11223;BME280;5668;52.012;8.724;2022-11-18T00:35:06;98352.22;;;10.33;96.49
11223;BME280;5668;52.012;8.724;2022-11-18T00:37:35;98358.38;;;10.32;96.55
11223;BME280;5668;52.012;8.724;2022-11-18T00:40:04;98355.13;;;10.30;95.90
11223;BME280;5668;52.012;8.724;2022-11-18T00:42:31;98362.13;;;10.30;96.06
11223;BME280;5668;52.012;8.724;2022-11-18T00:45:20;98367.47;;;10.28;96.49
11223;BME280;5668;52.012;8.724;2022-11-18T00:47:48;98361.13;;;10.31;96.35
11223;BME280;5668;52.012;8.724;2022-11-18T00:50:16;98363.72;;;10.31;96.12
11223;BME280;5668;52.012;8.724;2022-11-18T00:52:46;98367.78;;;10.33;96.08
11223;BME280;5668;52.012;8.724;2022-11-18T00:55:14;98359.34;;;10.31;95.91
11223;BME280;5668;52.012;8.724;2022-11-18T00:57:41;98370.41;;;10.33;96.04
11223;BME280;5668;52.012;8.724;2022-11-18T01:00:13;98373.66;;;10.35;95.77
11223;BME280;5668;52.012;8.724;2022-11-18T01:02:40;98379.53;;;10.37;95.94
11223;BME280;5668;52.012;8.724;2022-11-18T01:05:08;98371.72;;;10.37;95.70
11223;BME280;5668;52.012;8.724;2022-11-18T01:07:36;98375.94;;;10.38;95.42
11223;BME280;5668;52.012;8.724;2022-11-18T01:10:06;98375.94;;;10.38;95.34
11223;BME280;5668;52.012;8.724;2022-11-18T01:12:35;98382.75;;;10.39;95.21
11223;BME280;5668;52.012;8.724;2022-11-18T01:15:20;98386.31;;;10.38;94.94
11223;BME280;5668;52.012;8.724;2022-11-18T01:17:48;98390.56;;;10.39;95.10
11223;BME280;5668;52.012;8.724;2022-11-18T01:20:16;98391.69;;;10.37;94.82
11223;BME280;5668;52.012;8.724;2022-11-18T01:22:43;98391.84;;;10.35;94.75
11223;BME280;5668;52.012;8.724;2022-11-18T01:25:12;98393.63;;;10.35;94.59
11223;BME280;5668;52.012;8.724;2022-11-18T01:27:40;98392.78;;;10.34;94.59
11223;BME280;5668;52.012;8.724;2022-11-18T01:30:09;98393.75;;;10.33;94.61
11223;BME280;5668;52.012;8.724;2022-11-18T01:32:36;98395.41;;;10.34;94.69
11223;BME280;5668;52.012;8.724;2022-11-18T01:35:05;98404.81;;;10.35;94.51
11223;BME280;5668;52.012;8.724;2022-11-18T01:37:33;98405.78;;;10.34;94.34
11223;BME280;5668;52.012;8.724;2022-11-18T01:40:00;98409.34;;;10.33;94.25
11223;BME280;5668;52.012;8.724;2022-11-18T01:42:29;98411.94;;;10.33;94.21
11223;BME280;5668;52.012;8.724;2022-11-18T01:45:05;98413.03;;;10.31;94.15
11223;BME280;5668;52.012;8.724;2022-11-18T01:47:39;98412.91;;;10.32;94.28
11223;BME280;5668;52.012;8.724;2022-11-18T01:50:09;98416.31;;;10.33;94.33
11223;BME280;5668;52.012;8.724;2022-11-18T01:52:37;98417.13;;;10.33;94.55
11223;BME280;5668;52.012;8.724;2022-11-18T01:55:11;98414.53;;;10.33;94.48
11223;BME280;5668;52.012;8.724;2022-11-18T01:57:42;98419.06;;;10.31;93.95
11223;BME280;5668;52.012;8.724;2022-11-18T02:00:12;98410.78;;;10.28;94.39
11223;BME280;5668;52.012;8.724;2022-11-18T02:02:40;98424.56;;;10.28;94.23
11223;BME280;5668;52.012;8.724;2022-11-18T02:05:09;98427.16;;;10.28;94.39
11223;BME280;5668;52.012;8.724;2022-11-18T02:07:40;98423.06;;;10.26;94.39
11223;BME280;5668;52.012;8.724;2022-11-18T02:10:17;98434.56;;;10.23;94.33
11223;BME280;5668;52.012;8.724;2022-11-18T02:12:49;98428.06;;;10.19;94.81
11223;BME280;5668;52.012;8.724;2022-11-18T02:15:18;98440.38;;;10.17;94.66
11223;BME280;5668;52.012;8.724;2022-11-18T02:17:57;98440.38;;;10.17;94.79
11223;BME280;5668;52.012;8.724;2022-11-18T02:20:33;98442.25;;;10.15;94.97
11223;BME280;5668;52.012;8.724;2022-11-18T02:23:35;98439.03;;;10.13;95.15
11223;BME280;5668;52.012;8.724;2022-11-18T02:26:42;98441.47;;;10.15;95.50
11223;BME280;5668;52.012;8.724;2022-11-18T02:29:17;98444.59;;;10.18;95.65
11223;BME280;5668;52.012;8.724;2022-11-18T02:31:54;98435.84;;;10.19;95.27
11223;BME280;5668;52.012;8.724;2022-11-18T02:34:36;98451.44;;;10.19;95.53
11223;BME280;5668;52.012;8.724;2022-11-18T02:37:11;98448.16;;;10.17;95.68
11223;BME280;5668;52.012;8.724;2022-11-18T02:39:44;98450.75;;;10.17;95.68
11223;BME280;5668;52.012;8.724;2022-11-18T02:42:14;98454.28;;;10.16;95.71
11223;BME280;5668;52.012;8.724;2022-11-18T02:44:48;98449.41;;;10.13;95.75
11223;BME280;5668;52.012;8.724;2022-11-18T02:47:18;98459.78;;;10.13;96.16
11223;BME280;5668;52.012;8.724;2022-11-18T02:49:50;98460.75;;;10.12;96.41
11223;BME280;5668;52.012;8.724;2022-11-18T02:52:20;98467.72;;;10.12;96.56
11223;BME280;5668;52.012;8.724;2022-11-18T02:54:51;98463.34;;;10.12;96.27
11223;BME280;5668;52.012;8.724;2022-11-18T02:57:20;98467.19;;;10.08;96.50
11223;BME280;5668;52.012;8.724;2022-11-18T02:59:51;98469.78;;;10.08;96.64
11223;BME280;5668;52.012;8.724;2022-11-18T03:02:21;98472.38;;;10.08;96.84
11223;BME280;5668;52.012;8.724;2022-11-18T03:04:52;98474.97;;;10.08;96.77
11223;BME280;5668;52.012;8.724;2022-11-18T03:07:26;98467.19;;;10.08;97.24
11223;BME280;5668;52.012;8.724;2022-11-18T03:09:57;98474.00;;;10.09;97.19
11223;BME280;5668;52.012;8.724;2022-11-18T03:12:31;98468.81;;;10.09;97.34
11223;BME280;5668;52.012;8.724;2022-11-18T03:15:15;98471.28;;;10.10;97.24
11223;BME280;5668;52.012;8.724;2022-11-18T03:17:51;98478.09;;;10.12;97.45
11223;BME280;5668;52.012;8.724;2022-11-18T03:20:25;98480.56;;;10.13;97.77
11223;BME280;5668;52.012;8.724;2022-11-18T03:22:56;98480.56;;;10.13;97.60
11223;BME280;5668;52.012;8.724;2022-11-18T03:25:32;98482.19;;;10.14;97.49
11223;BME280;5668;52.012;8.724;2022-11-18T03:28:06;98485.75;;;10.13;97.59
11223;BME280;5668;52.012;8.724;2022-11-18T03:30:41;98484.09;;;10.12;97.38
11223;BME280;5668;52.012;8.724;2022-11-18T03:33:15;98478.09;;;10.12;97.49
11223;BME280;5668;52.012;8.724;2022-11-18T03:35:46;98487.00;;;10.09;97.58
11223;BME280;5668;52.012;8.724;2022-11-18T03:38:17;98490.53;;;10.08;97.50
11223;BME280;5668;52.012;8.724;2022-11-18T03:40:54;98487.00;;;10.09;97.23
11223;BME280;5668;52.012;8.724;2022-11-18T03:43:27;98487.94;;;10.08;97.57
11223;BME280;5668;52.012;8.724;2022-11-18T03:46:01;98488.75;;;10.08;97.07
11223;BME280;5668;52.012;8.724;2022-11-18T03:48:33;98489.09;;;10.05;97.02
11223;BME280;5668;52.012;8.724;2022-11-18T03:51:06;98491.53;;;10.07;97.13
11223;BME280;5668;52.012;8.724;2022-11-18T03:53:38;98500.28;;;10.06;97.03
11223;BME280;5668;52.012;8.724;2022-11-18T03:56:11;98501.09;;;10.06;97.30
11223;BME280;5668;52.012;8.724;2022-11-18T03:58:46;98503.69;;;10.06;97.06
11223;BME280;5668;52.012;8.724;2022-11-18T04:01:22;98502.69;;;10.07;96.73
11223;BME280;5668;52.012;8.724;2022-11-18T04:03:52;98504.88;;;10.12;96.57
11223;BME280;5668;52.012;8.724;2022-11-18T04:06:23;98505.84;;;10.11;96.35
11223;BME280;5668;52.012;8.724;2022-11-18T04:08:54;98517.16;;;10.10;95.96
11223;BME280;5668;52.012;8.724;2022-11-18T04:11:25;98511.97;;;10.10;96.14
11223;BME280;5668;52.012;8.724;2022-11-18T04:14:15;98525.63;;;10.12;96.45
11223;BME280;5668;52.012;8.724;2022-11-18T04:16:50;98525.31;;;10.15;96.08
11223;BME280;5668;52.012;8.724;2022-11-18T04:19:19;98525.31;;;10.15;96.05
11223;BME280;5668;52.012;8.724;2022-11-18T04:21:48;98528.09;;;10.14;95.85
11223;BME280;5668;52.012;8.724;2022-11-18T04:24:16;98524.69;;;10.13;95.84
11223;BME280;5668;52.012;8.724;2022-11-18T04:26:43;98525.31;;;10.15;95.66
11223;BME280;5668;52.012;8.724;2022-11-18T04:29:11;98527.56;;;10.10;95.55
11223;BME280;5668;52.012;8.724;2022-11-18T04:31:39;98531.44;;;10.06;95.39
11223;BME280;5668;52.012;8.724;2022-11-18T04:34:08;98531.72;;;10.03;95.02
11223;BME280;5668;52.012;8.724;2022-11-18T04:36:36;98530.38;;;9.99;95.14
11223;BME280;5668;52.012;8.724;2022-11-18T04:39:03;98535.84;;;9.96;95.41
11223;BME280;5668;52.012;8.724;2022-11-18T04:41:31;98535.50;;;9.91;95.36
11223;BME280;5668;52.012;8.724;2022-11-18T04:44:16;98546.28;;;9.86;95.28
11223;BME280;5668;52.012;8.724;2022-11-18T04:46:44;98549.06;;;9.85;95.18
11223;BME280;5668;52.012;8.724;2022-11-18T04:49:14;98544.00;;;9.83;95.86
11223;BME280;5668;52.012;8.724;2022-11-18T04:51:43;98549.63;;;9.79;96.02
11223;BME280;5668;52.012;8.724;2022-11-18T04:54:11;98554.16;;;9.77;96.50
11223;BME280;5668;52.012;8.724;2022-11-18T04:56:39;98563.03;;;9.74;96.82
11223;BME280;5668;52.012;8.724;2022-11-18T04:59:08;98564.94;;;9.72;97.12
11223;BME280;5668;52.012;8.724;2022-11-18T05:01:35;98575.44;;;9.70;97.29
11223;BME280;5668;52.012;8.724;2022-11-18T05:04:04;98570.13;;;9.72;97.55
11223;BME280;5668;52.012;8.724;2022-11-18T05:06:34;98566.72;;;9.71;97.90
11223;BME280;5668;52.012;8.724;2022-11-18T05:09:02;98570.00;;;9.74;98.13
11223;BME280;5668;52.012;8.724;2022-11-18T05:11:29;98576.94;;;9.73;98.18
11223;BME280;5668;52.012;8.724;2022-11-18T05:14:16;98579.41;;;9.75;98.33
11223;BME280;5668;52.012;8.724;2022-11-18T05:16:44;98574.22;;;9.75;98.15
11223;BME280;5668;52.012;8.724;2022-11-18T05:19:11;98582.97;;;9.74;98.42
11223;BME280;5668;52.012;8.724;2022-11-18T05:21:40;98576.44;;;9.69;98.35
11223;BME280;5668;52.012;8.724;2022-11-18T05:24:08;98583.41;;;9.69;98.30
11223;BME280;5668;52.012;8.724;2022-11-18T05:26:36;98582.41;;;9.70;98.28
11223;BME280;5668;52.012;8.724;2022-11-18T05:29:04;98585.31;;;9.67;98.40
11223;BME280;5668;52.012;8.724;2022-11-18T05:31:32;98584.78;;;9.63;98.42
11223;BME280;5668;52.012;8.724;2022-11-18T05:34:00;98588.19;;;9.64;97.93
11223;BME280;5668;52.012;8.724;2022-11-18T05:36:27;98582.19;;;9.63;98.31
11223;BME280;5668;52.012;8.724;2022-11-18T05:38:59;98592.56;;;9.63;98.38
11223;BME280;5668;52.012;8.724;2022-11-18T05:41:27;98590.13;;;9.62;98.53
11223;BME280;5668;52.012;8.724;2022-11-18T05:44:13;98591.22;;;9.59;98.63
11223;BME280;5668;52.012;8.724;2022-11-18T05:46:41;98602.69;;;9.57;97.98
11223;BME280;5668;52.012;8.724;2022-11-18T05:49:09;98613.75;;;9.59;98.35
11223;BME280;5668;52.012;8.724;2022-11-18T05:51:36;98621.53;;;9.59;98.60
11223;BME280;5668;52.012;8.724;2022-11-18T05:54:07;98625.88;;;9.58;98.59
11223;BME280;5668;52.012;8.724;2022-11-18T05:56:37;98622.34;;;9.59;98.97
11223;BME280;5668;52.012;8.724;2022-11-18T05:59:06;98620.69;;;9.58;99.21
11223;BME280;5668;52.012;8.724;2022-11-18T06:01:42;98630.13;;;9.59;98.84
11223;BME280;5668;52.012;8.724;2022-11-18T06:04:21;98637.22;;;9.57;98.43
11223;BME280;5668;52.012;8.724;2022-11-18T06:06:52;98638.72;;;9.60;98.80
11223;BME280;5668;52.012;8.724;2022-11-18T06:09:28;98633.66;;;9.58;98.91
11223;BME280;5668;52.012;8.724;2022-11-18T06:11:59;98638.72;;;9.60;98.68
11223;BME280;5668;52.012;8.724;2022-11-18T06:14:31;98642.13;;;9.60;98.78
11223;BME280;5668;52.012;8.724;2022-11-18T06:17:04;98643.34;;;9.56;98.74
11223;BME280;5668;52.012;8.724;2022-11-18T06:19:33;98646.09;;;9.55;98.16
11223;BME280;5668;52.012;8.724;2022-11-18T06:22:01;98654.03;;;9.53;98.56
11223;BME280;5668;52.012;8.724;2022-11-18T06:24:32;98656.63;;;9.53;98.75
11223;BME280;5668;52.012;8.724;2022-11-18T06:27:00;98653.63;;;9.48;97.78
11223;BME280;5668;52.012;8.724;2022-11-18T06:29:28;98663.34;;;9.46;97.66
11223;BME280;5668;52.012;8.724;2022-11-18T06:31:56;98655.81;;;9.43;98.08
11223;BME280;5668;52.012;8.724;2022-11-18T06:34:24;98661.72;;;9.36;97.40
11223;BME280;5668;52.012;8.724;2022-11-18T06:36:52;98662.81;;;9.33;98.50
11223;BME280;5668;52.012;8.724;2022-11-18T06:39:19;98659.69;;;9.29;97.61
11223;BME280;5668;52.012;8.724;2022-11-18T06:41:51;98665.00;;;9.28;98.10
11223;BME280;5668;52.012;8.724;2022-11-18T06:44:18;98666.09;;;9.25;98.44
11223;BME280;5668;52.012;8.724;2022-11-18T06:46:46;98672.91;;;9.26;98.14
11223;BME280;5668;52.012;8.724;2022-11-18T06:49:22;98681.38;;;9.28;98.48
11223;BME280;5668;52.012;8.724;2022-11-18T06:51:51;98682.75;;;9.23;98.31
11223;BME280;5668;52.012;8.724;2022-11-18T06:54:19;98694.06;;;9.22;98.04
11223;BME280;5668;52.012;8.724;2022-11-18T06:56:48;98695.84;;;9.21;98.39
11223;BME280;5668;52.012;8.724;2022-11-18T06:59:16;98701.97;;;9.20;98.79
11223;BME280;5668;52.012;8.724;2022-11-18T07:01:48;98696.66;;;9.22;98.15
11223;BME280;5668;52.012;8.724;2022-11-18T07:04:18;98705.94;;;9.24;98.88
11223;BME280;5668;52.012;8.724;2022-11-18T07:06:46;98709.34;;;9.25;98.79
11223;BME280;5668;52.012;8.724;2022-11-18T07:09:13;98714.50;;;9.25;98.60
11223;BME280;5668;52.012;8.724;2022-11-18T07:11:41;98718.75;;;9.26;98.10
11223;BME280;5668;52.012;8.724;2022-11-18T07:14:11;98727.47;;;9.25;98.11
11223;BME280;5668;52.012;8.724;2022-11-18T07:16:39;98727.47;;;9.25;98.10
11223;BME280;5668;52.012;8.724;2022-11-18T07:19:11;98735.25;;;9.25;97.66
11223;BME280;5668;52.012;8.724;2022-11-18T07:21:39;98738.97;;;9.22;97.55
11223;BME280;5668;52.012;8.724;2022-11-18T07:24:10;98737.84;;;9.25;98.03
11223;BME280;5668;52.012;8.724;2022-11-18T07:26:38;98741.13;;;9.27;97.60
11223;BME280;5668;52.012;8.724;2022-11-18T07:29:06;98750.41;;;9.29;98.11
11223;BME280;5668;52.012;8.724;2022-11-18T07:31:36;98753.53;;;9.33;97.30
11223;BME280;5668;52.012;8.724;2022-11-18T07:34:05;98756.69;;;9.27;97.40
11223;BME280;5668;52.012;8.724;2022-11-18T07:36:33;98759.97;;;9.29;98.09
11223;BME280;5668;52.012;8.724;2022-11-18T07:39:02;98764.31;;;9.28;97.58
11223;BME280;5668;52.012;8.724;2022-11-18T07:41:30;98764.19;;;9.30;97.91
11223;BME280;5668;52.012;8.724;2022-11-18T07:43:59;98769.50;;;9.28;97.19
11223;BME280;5668;52.012;8.724;2022-11-18T07:46:28;98768.56;;;9.29;97.15
11223;BME280;5668;52.012;8.724;2022-11-18T07:49:00;98776.84;;;9.33;97.47
11223;BME280;5668;52.012;8.724;2022-11-18T07:51:30;98772.50;;;9.33;97.64
11223;BME280;5668;52.012;8.724;2022-11-18T07:53:58;98780.44;;;9.32;97.06
11223;BME280;5668;52.012;8.724;2022-11-18T07:56:26;98772.50;;;9.33;97.22
11223;BME280;5668;52.012;8.724;2022-11-18T07:58:54;98774.28;;;9.33;96.92
11223;BME280;5668;52.012;8.724;2022-11-18T08:01:24;98779.63;;;9.31;97.10
11223;BME280;5668;52.012;8.724;2022-11-18T08:04:02;98787.91;;;9.25;96.56
11223;BME280;5668;52.012;8.724;2022-11-18T08:06:32;98795.03;;;9.23;97.43
11223;BME280;5668;52.012;8.724;2022-11-18T08:09:00;98789.16;;;9.21;96.89
11223;BME280;5668;52.012;8.724;2022-11-18T08:11:28;98788.59;;;9.18;96.67
11223;BME280;5668;52.012;8.724;2022-11-18T08:13:56;98794.34;;;9.21;97.23
11223;BME280;5668;52.012;8.724;2022-11-18T08:16:24;98799.38;;;9.23;97.33
11223;BME280;5668;52.012;8.724;2022-11-18T08:18:52;98800.34;;;9.22;96.59
11223;BME280;5668;52.012;8.724;2022-11-18T08:21:22;98800.34;;;9.22;97.11
11223;BME280;5668;52.012;8.724;2022-11-18T08:23:51;98799.38;;;9.23;97.20
11223;BME280;5668;52.012;8.724;2022-11-18T08:26:20;98800.06;;;9.25;96.67
11223;BME280;5668;52.012;8.724;2022-11-18T08:28:48;98800.34;;;9.22;96.16
11223;BME280;5668;52.012;8.724;2022-11-18T08:31:17;98798.69;;;9.21;96.90
11223;BME280;5668;52.012;8.724;2022-11-18T08:33:46;98805.22;;;9.25;96.76
11223;BME280;5668;52.012;8.724;2022-11-18T08:36:15;98806.63;;;9.29;97.22
11223;BME280;5668;52.012;8.724;2022-11-18T08:38:45;98807.44;;;9.29;97.68
11223;BME280;5668;52.012;8.724;2022-11-18T08:41:13;98809.22;;;9.29;97.38
11223;BME280;5668;52.012;8.724;2022-11-18T08:43:42;98811.81;;;9.29;97.26
11223;BME280;5668;52.012;8.724;2022-11-18T08:46:10;98816.28;;;9.27;96.73
11223;BME280;5668;52.012;8.724;2022-11-18T08:48:37;98815.59;;;9.25;97.02
11223;BME280;5668;52.012;8.724;2022-11-18T08:51:07;98818.88;;;9.27;97.08
11223;BME280;5668;52.012;8.724;2022-11-18T08:53:35;98823.25;;;9.26;97.76
11223;BME280;5668;52.012;8.724;2022-11-18T08:56:05;98834.44;;;9.27;97.23
11223;BME280;5668;52.012;8.724;2022-11-18T08:58:34;98835.53;;;9.24;97.04
11223;BME280;5668;52.012;8.724;2022-11-18T09:01:04;98839.22;;;9.22;97.09
11223;BME280;5668;52.012;8.724;2022-11-18T09:03:32;98843.84;;;9.18;97.41
11223;BME280;5668;52.012;8.724;2022-11-18T09:06:05;98853.13;;;9.21;97.48
11223;BME280;5668;52.012;8.724;2022-11-18T09:08:33;98843.44;;;9.23;97.50
11223;BME280;5668;52.012;8.724;2022-11-18T09:11:06;98842.34;;;9.25;97.53
11223;BME280;5668;52.012;8.724;2022-11-18T09:13:34;98846.44;;;9.28;97.66
11223;BME280;5668;52.012;8.724;2022-11-18T09:16:02;98851.75;;;9.26;97.02
11223;BME280;5668;52.012;8.724;2022-11-18T09:18:30;98852.59;;;9.27;97.10
11223;BME280;5668;52.012;8.724;2022-11-18T09:21:00;98850.81;;;9.27;96.45
11223;BME280;5668;52.012;8.724;2022-11-18T09:23:28;98854.34;;;9.26;96.21
11223;BME280;5668;52.012;8.724;2022-11-18T09:25:59;98857.06;;;9.25;96.32
11223;BME280;5668;52.012;8.724;2022-11-18T09:28:28;98858.31;;;9.21;96.86
11223;BME280;5668;52.012;8.724;2022-11-18T09:30:57;98873.16;;;9.19;96.65
11223;BME280;5668;52.012;8.724;2022-11-18T09:33:25;98867.31;;;9.17;96.21
11223;BME280;5668;52.012;8.724;2022-11-18T09:35:54;98874.00;;;9.19;96.22
11223;BME280;5668;52.012;8.724;2022-11-18T09:38:21;98881.50;;;9.22;96.77
11223;BME280;5668;52.012;8.724;2022-11-18T09:40:57;98886.81;;;9.21;96.55
11223;BME280;5668;52.012;8.724;2022-11-18T09:43:38;98885.88;;;9.22;96.31
11223;BME280;5668;52.012;8.724;2022-11-18T09:46:19;98894.59;;;9.21;96.79
11223;BME280;5668;52.012;8.724;2022-11-18T09:48:49;98886.56;;;9.24;96.41
11223;BME280;5668;52.012;8.724;2022-11-18T09:51:39;98890.09;;;9.23;96.71
11223;BME280;5668;52.012;8.724;2022-11-18T09:54:10;98890.78;;;9.25;96.71
11223;BME280;5668;52.012;8.724;2022-11-18T09:56:39;98895.81;;;9.26;96.53
11223;BME280;5668;52.012;8.724;2022-11-18T09:59:12;98901.84;;;9.27;96.34
11223;BME280;5668;52.012;8.724;2022-11-18T10:01:42;98898.97;;;9.30;96.66
11223;BME280;5668;52.012;8.724;2022-11-18T10:04:14;98904.88;;;9.32;96.97
11223;BME280;5668;52.012;8.724;2022-11-18T10:06:42;98906.47;;;9.33;96.79
11223;BME280;5668;52.012;8.724;2022-11-18T10:09:25;98910.72;;;9.34;96.53
11223;BME280;5668;52.012;8.724;2022-11-18T10:12:11;98910.56;;;9.26;95.54
11223;BME280;5668;52.012;8.724;2022-11-18T10:15:03;98916.28;;;9.20;95.52
11223;BME280;5668;52.012;8.724;2022-11-18T10:17:44;98923.22;;;9.19;95.59
11223;BME280;5668;52.012;8.724;2022-11-18T10:20:32;98925.28;;;9.16;95.84
11223;BME280;5668;52.012;8.724;2022-11-18T10:23:07;98932.13;;;9.17;95.95
11223;BME280;5668;52.012;8.724;2022-11-18T10:25:39;98933.72;;;9.18;95.70
11223;BME280;5668;52.012;8.724;2022-11-18T10:28:15;98934.53;;;9.18;95.07
11223;BME280;5668;52.012;8.724;2022-11-18T10:30:44;98933.72;;;9.18;95.72
11223;BME280;5668;52.012;8.724;2022-11-18T10:33:26;98936.19;;;9.19;95.50
11223;BME280;5668;52.012;8.724;2022-11-18T10:36:12;98945.06;;;9.17;95.03
11223;BME280;5668;52.012;8.724;2022-11-18T10:38:44;98948.59;;;9.16;95.77
11223;BME280;5668;52.012;8.724;2022-11-18T10:41:13;98945.19;;;9.15;95.51
11223;BME280;5668;52.012;8.724;2022-11-18T10:43:51;98942.97;;;9.11;95.37
11223;BME280;5668;52.012;8.724;2022-11-18T10:46:24;98952.81;;;9.07;95.17
11223;BME280;5668;52.012;8.724;2022-11-18T10:49:13;98952.63;;;8.99;94.30
11223;BME280;5668;52.012;8.724;2022-11-18T10:51:43;98957.00;;;8.99;95.41
11223;BME280;5668;52.012;8.724;2022-11-18T10:54:15;98959.59;;;8.99;94.39
11223;BME280;5668;52.012;8.724;2022-11-18T10:56:48;98954.66;;;8.96;95.02
11223;BME280;5668;52.012;8.724;2022-11-18T10:59:24;98966.94;;;8.93;95.25
11223;BME280;5668;52.012;8.724;2022-11-18T11:02:15;98971.31;;;8.93;95.11
11223;BME280;5668;52.012;8.724;2022-11-18T11:04:43;98970.72;;;8.89;95.59
11223;BME280;5668;52.012;8.724;2022-11-18T11:07:24;98967.19;;;8.90;95.57
11223;BME280;5668;52.012;8.724;2022-11-18T11:10:17;98977.00;;;8.87;94.91
11223;BME280;5668;52.012;8.724;2022-11-18T11:12:50;98964.41;;;8.82;95.21
11223;BME280;5668;52.012;8.724;2022-11-18T11:15:23;98965.81;;;8.86;95.27
11223;BME280;5668;52.012;8.724;2022-11-18T11:17:58;98973.25;;;8.80;94.55
11223;BME280;5668;52.012;8.724;2022-11-18T11:20:44;98976.69;;;8.80;95.00
11223;BME280;5668;52.012;8.724;2022-11-18T11:23:13;98975.84;;;8.80;94.68
11223;BME280;5668;52.012;8.724;2022-11-18T11:25:45;98990.84;;;8.76;94.99
11223;BME280;5668;52.012;8.724;2022-11-18T11:28:21;98983.59;;;8.70;95.00
11223;BME280;5668;52.012;8.724;2022-11-18T11:31:01;98985.59;;;8.67;94.97
11223;BME280;5668;52.012;8.724;2022-11-18T11:33:35;98983.72;;;8.69;95.21
11223;BME280;5668;52.012;8.724;2022-11-18T11:36:19;98981.25;;;8.67;94.60
11223;BME280;5668;52.012;8.724;2022-11-18T11:38:59;98988.59;;;8.62;94.05
11223;BME280;5668;52.012;8.724;2022-11-18T11:41:31;98992.34;;;8.58;94.58
11223;BME280;5668;52.012;8.724;2022-11-18T11:44:20;98994.28;;;8.56;94.63
11223;BME280;5668;52.012;8.724;2022-11-18T11:46:58;98998.31;;;8.49;94.21
11223;BME280;5668;52.012;8.724;2022-11-18T11:49:52;99005.06;;;8.40;94.62
11223;BME280;5668;52.012;8.724;2022-11-18T11:52:28;99004.25;;;8.40;94.94
11223;BME280;5668;52.012;8.724;2022-11-18T11:55:06;99011.19;;;8.39;95.17
11223;BME280;5668;52.012;8.724;2022-11-18T11:57:50;99007.78;;;8.39;95.06
11223;BME280;5668;52.012;8.724;2022-11-18T12:00:21;99001.19;;;8.35;95.33
11223;BME280;5668;52.012;8.724;2022-11-18T12:02:58;99010.50;;;8.37;95.83
11223;BME280;5668;52.012;8.724;2022-11-18T12:05:31;99011.31;;;8.38;95.56
11223;BME280;5668;52.012;8.724;2022-11-18T12:08:02;99015.22;;;8.32;94.83
11223;BME280;5668;52.012;8.724;2022-11-18T12:10:36;99015.66;;;8.37;95.09
11223;BME280;5668;52.012;8.724;2022-11-18T12:13:20;99015.66;;;8.37;94.96
11223;BME280;5668;52.012;8.724;2022-11-18T12:18:49;99024.03;;;8.30;95.43
11223;BME280;5668;52.012;8.724;2022-11-18T12:21:52;99025.69;;;8.31;95.40
11223;BME280;5668;52.012;8.724;2022-11-18T12:24:31;99024.84;;;8.30;95.64
11223;BME280;5668;52.012;8.724;2022-11-18T12:27:02;99029.19;;;8.30;95.30
11223;BME280;5668;52.012;8.724;2022-11-18T12:29:35;99032.59;;;8.30;95.61
11223;BME280;5668;52.012;8.724;2022-11-18T12:32:33;99032.53;;;8.32;95.07
11223;BME280;5668;52.012;8.724;2022-11-18T12:35:03;99037.44;;;8.35;95.51
11223;BME280;5668;52.012;8.724;2022-11-18T12:37:44;99046.84;;;8.36;95.33
11223;BME280;5668;52.012;8.724;2022-11-18T12:40:31;99047.13;;;8.33;94.86
11223;BME280;5668;52.012;8.724;2022-11-18T12:42:59;99043.81;;;8.31;94.09
11223;BME280;5668;52.012;8.724;2022-11-18T12:45:51;99041.00;;;8.23;93.70
11223;BME280;5668;52.012;8.724;2022-11-18T12:54:32;99049.16;;;8.07;94.17
11223;BME280;5668;52.012;8.724;2022-11-18T12:57:02;99058.69;;;8.06;94.06
11223;BME280;5668;52.012;8.724;2022-11-18T12:59:33;99057.19;;;8.04;93.69
11223;BME280;5668;52.012;8.724;2022-11-18T13:02:20;99057.97;;;8.04;93.81
11223;BME280;5668;52.012;8.724;2022-11-18T13:05:09;99062.34;;;8.04;94.04
11223;BME280;5668;52.012;8.724;2022-11-18T13:07:43;99068.13;;;7.96;92.90
11223;BME280;5668;52.012;8.724;2022-11-18T13:10:34;99067.53;;;7.93;94.17
11223;BME280;5668;52.012;8.724;2022-11-18T13:13:04;99054.84;;;7.90;94.28
11223;BME280;5668;52.012;8.724;2022-11-18T13:15:41;99065.19;;;7.90;93.75
11223;BME280;5668;52.012;8.724;2022-11-18T13:18:27;99067.22;;;7.86;94.24
11223;BME280;5668;52.012;8.724;2022-11-18T13:20:56;99081.09;;;7.85;94.04
11223;BME280;5668;52.012;8.724;2022-11-18T13:23:27;99078.72;;;7.82;93.53
11223;BME280;5668;52.012;8.724;2022-11-18T13:26:17;99086.47;;;7.82;92.65
11223;BME280;5668;52.012;8.724;2022-11-18T13:31:46;99080.97;;;7.75;93.72
11223;BME280;5668;52.012;8.724;2022-11-18T13:34:19;99086.97;;;7.76;92.72
11223;BME280;5668;52.012;8.724;2022-11-18T13:36:49;99086.03;;;7.77;93.32
11223;BME280;5668;52.012;8.724;2022-11-18T13:39:22;99089.09;;;7.71;92.71
11223;BME280;5668;52.012;8.724;2022-11-18T13:42:02;99088.16;;;7.61;90.64
11223;BME280;5668;52.012;8.724;2022-11-18T13:44:31;99087.69;;;7.56;92.08
11223;BME280;5668;52.012;8.724;2022-11-18T13:47:05;99089.69;;;7.52;92.29
11223;BME280;5668;52.012;8.724;2022-11-18T13:49:48;99096.88;;;7.49;91.98
11223;BME280;5668;52.012;8.724;2022-11-18T13:52:19;99096.16;;;7.47;92.14
11223;BME280;5668;52.012;8.724;2022-11-18T13:54:50;99109.19;;;7.45;92.69
11223;BME280;5668;52.012;8.724;2022-11-18T13:57:21;99111.66;;;7.47;91.64